Aeroporto :







RITROVATECI SU...

 
LOGIN :

Iscrizione | Disclaimer

   EN    FR    IT 

 









Sommario :    VFR   VFR Marginale   IFR   IFR Intensivo   IFR Molto Intensivo
Visibilità : 
Base nubi : 
>= 8 km
>= 3000ft
5 / 8 km
1000 / 3000 ft
1500m / 5 km
500 / 1000 ft
800 / 1500m
200 / 500 ft
< 800m
< 200 ft
Simboli :   Temporali  Nebbia  Neve Forte  Precipitazioni Forti  Vento > 20 kt







- Altitudine del aeroporto : 56 ft


KRKD - Knox County Regional

ULTIMO METAR :
  • 170556Z AUTO 21003KT 10SM CLR 19/17 A2989 RMK AO2 SLP121 T01890167 10206 20189 58017

METARs OBSOLETI :
  • 170456Z AUTO 25005KT 10SM CLR 20/17 A2991 RMK AO2 SLP127 T02000172 402610144
  • 170356Z AUTO 23005KT 10SM CLR 19/17 A2992 RMK AO2 SLP133 T01940172

TAF KRKD
Valido dal 17 a 06 ore il 18 a 06 ore UTC


170520Z 1706/1806 21012KT P6SM FEW150
FM170900 22011KT 1SM BR BKN080
FM171100 22011KT P6SM BKN070
FM171500 24011KT P6SM BKN025
FM171800 24009KT 6SM -SHRA BKN025
FM180200 26008KT P6SM BKN045
FIR KZBW / America del Nord



MetMap, La meteo Aeronautica in un colpo d'occhio ! - Copyright ORBIFLY Dicembre 2007 - Disclaimer

ORBIFLY MET'MAP TEAM :

Programmazione e sviluppo : Alexandra Zaïnal
Concezione e sviluppo : Baudouin d'Aumeries
Co-Programmazione e sviluppo : Marc-Olivier Méhu
Supporto tecnico e logistico : Manuel Goepfert
Aiuto per la traduzione : Arnaldo La Scala

Contatto : metmap@orbifly.com




FONTI E CREDITI :

   NOAA